PWSweather.com
Personal Weather Stations
Station Observations
IMAZOWIE6
WarszawaPL

WarszawaPL

Lat: 52.27957, Lon: 21.05489

Elevation: 100

Station Type: WS1080

http://stacjapogody.waw.pl/

High Low Average
Temperature 61.2°F16.2°C 35.1°F1.7°C 50.6°F10.3°C
Dew Point -166.7°F-110.4°C -169.3°F-111.8°C -167.7°F-110.9°C
Winds Calm Calm Calm Calm Calm NCalm N
Wind Gusts 1.4 mph2.3 kmh -- --
Humidity - - -
Pressure 30.05 in1017.6 mb 29.76 in1007.8 mb -
Precipitation 0.00 in0.0 mm - -
Hour Temp Dew Point Humidity Winds Wind Gusts Pressure Precip Precip Rate Daily Precip Total
12:04 AM 41.7°F5.4°C -168.6°F-111.4°C - Calm Calm -- 30.05 in1017.6 mb 0.00 in0.0 mm 0.00 in0.0 mm 0.00 in0.0 mm
12:19 AM 41.0°F5.0°C -168.7°F-111.5°C - Calm Calm -- 30.04 in1017.3 mb 0.00 in0.0 mm 0.00 in0.0 mm 0.00 in0.0 mm
12:34 AM 40.8°F4.9°C -168.7°F-111.5°C - Calm Calm -- 30.04 in1017.3 mb 0.00 in0.0 mm 0.00 in0.0 mm 0.00 in0.0 mm
12:49 AM 40.5°F4.7°C -168.8°F-111.6°C - Calm Calm -- 30.04 in1017.3 mb 0.00 in0.0 mm 0.00 in0.0 mm 0.00 in0.0 mm
01:04 AM 40.3°F4.6°C -168.8°F-111.6°C - Calm Calm 0.6 mph1.0 kmh 30.04 in1017.3 mb 0.00 in0.0 mm 0.00 in0.0 mm 0.00 in0.0 mm
01:19 AM 39.7°F4.3°C -168.8°F-111.6°C - Calm Calm 0.6 mph1.0 kmh 30.04 in1017.3 mb 0.00 in0.0 mm 0.00 in0.0 mm 0.00 in0.0 mm
01:34 AM 39.6°F4.2°C -168.8°F-111.6°C - Calm Calm -- 30.03 in1016.9 mb 0.00 in0.0 mm 0.00 in0.0 mm 0.00 in0.0 mm
01:49 AM 39.6°F4.2°C -168.8°F-111.6°C - Calm Calm -- 30.03 in1016.9 mb 0.00 in0.0 mm 0.00 in0.0 mm 0.00 in0.0 mm
02:04 AM 39.2°F4.0°C -168.9°F-111.6°C - Calm Calm -- 30.02 in1016.6 mb 0.00 in0.0 mm 0.00 in0.0 mm 0.00 in0.0 mm
02:19 AM 37.9°F3.3°C -169.0°F-111.7°C - Calm Calm -- 30.02 in1016.6 mb 0.00 in0.0 mm 0.00 in0.0 mm 0.00 in0.0 mm
02:34 AM 37.4°F3.0°C -169.1°F-111.7°C - Calm Calm -- 30.02 in1016.6 mb 0.00 in0.0 mm 0.00 in0.0 mm 0.00 in0.0 mm
02:49 AM 36.5°F2.5°C -169.2°F-111.8°C - Calm Calm -- 30.01 in1016.3 mb 0.00 in0.0 mm 0.00 in0.0 mm 0.00 in0.0 mm
03:04 AM 35.6°F2.0°C -169.2°F-111.8°C - Calm Calm -- 30.02 in1016.6 mb 0.00 in0.0 mm 0.00 in0.0 mm 0.00 in0.0 mm
03:19 AM 35.1°F1.7°C -169.3°F-111.8°C - Calm Calm -- 30.01 in1016.3 mb 0.00 in0.0 mm 0.00 in0.0 mm 0.00 in0.0 mm
03:34 AM 35.4°F1.9°C -169.3°F-111.8°C - Calm Calm -- 30.02 in1016.6 mb 0.00 in0.0 mm 0.00 in0.0 mm 0.00 in0.0 mm
03:49 AM 35.4°F1.9°C -169.3°F-111.8°C - Calm Calm 1.4 mph2.3 kmh 30.01 in1016.3 mb 0.00 in0.0 mm 0.00 in0.0 mm 0.00 in0.0 mm
04:04 AM 35.4°F1.9°C -169.3°F-111.8°C - Calm Calm -- 30.01 in1016.3 mb 0.00 in0.0 mm 0.00 in0.0 mm 0.00 in0.0 mm
04:19 AM 35.1°F1.7°C -169.3°F-111.8°C - Calm Calm -- 30.00 in1015.9 mb 0.00 in0.0 mm 0.00 in0.0 mm 0.00 in0.0 mm
04:34 AM 35.1°F1.7°C -169.3°F-111.8°C - Calm Calm -- 30.00 in1015.9 mb 0.00 in0.0 mm 0.00 in0.0 mm 0.00 in0.0 mm
04:49 AM 36.0°F2.2°C -169.2°F-111.8°C - Calm Calm 0.6 mph1.0 kmh 30.01 in1016.3 mb 0.00 in0.0 mm 0.00 in0.0 mm 0.00 in0.0 mm
05:04 AM 36.7°F2.6°C -169.1°F-111.7°C - Calm Calm 0.6 mph1.0 kmh 30.01 in1016.3 mb 0.00 in0.0 mm 0.00 in0.0 mm 0.00 in0.0 mm
05:19 AM 36.7°F2.6°C -169.1°F-111.7°C - Calm Calm -- 30.00 in1015.9 mb 0.00 in0.0 mm 0.00 in0.0 mm 0.00 in0.0 mm
05:34 AM 36.5°F2.5°C -169.2°F-111.8°C - Calm Calm -- 30.00 in1015.9 mb 0.00 in0.0 mm 0.00 in0.0 mm 0.00 in0.0 mm
05:49 AM 37.6°F3.1°C -169.0°F-111.7°C - Calm Calm -- 30.01 in1016.3 mb 0.00 in0.0 mm 0.00 in0.0 mm 0.00 in0.0 mm
06:04 AM 39.9°F4.4°C -168.8°F-111.6°C - Calm Calm -- 30.00 in1015.9 mb 0.00 in0.0 mm 0.00 in0.0 mm 0.00 in0.0 mm
06:19 AM 43.2°F6.2°C -168.5°F-111.4°C - Calm Calm -- 30.00 in1015.9 mb 0.00 in0.0 mm 0.00 in0.0 mm 0.00 in0.0 mm
06:34 AM 44.4°F6.9°C -168.4°F-111.3°C - Calm Calm -- 30.00 in1015.9 mb 0.00 in0.0 mm 0.00 in0.0 mm 0.00 in0.0 mm
06:49 AM 43.5°F6.4°C -168.4°F-111.3°C - Calm Calm -- 29.99 in1015.6 mb 0.00 in0.0 mm 0.00 in0.0 mm 0.00 in0.0 mm
07:04 AM 44.8°F7.1°C -168.3°F-111.3°C - Calm Calm 0.6 mph1.0 kmh 29.99 in1015.6 mb 0.00 in0.0 mm 0.00 in0.0 mm 0.00 in0.0 mm
07:19 AM 45.3°F7.4°C -168.3°F-111.3°C - Calm Calm -- 29.99 in1015.6 mb 0.00 in0.0 mm 0.00 in0.0 mm 0.00 in0.0 mm
07:34 AM 46.2°F7.9°C -168.2°F-111.2°C - Calm Calm -- 29.99 in1015.6 mb 0.00 in0.0 mm 0.00 in0.0 mm 0.00 in0.0 mm
07:49 AM 47.8°F8.8°C -168.0°F-111.1°C - Calm Calm -- 29.99 in1015.6 mb 0.00 in0.0 mm 0.00 in0.0 mm 0.00 in0.0 mm
08:04 AM 52.0°F11.1°C -167.6°F-110.9°C - Calm Calm -- 29.99 in1015.6 mb 0.00 in0.0 mm 0.00 in0.0 mm 0.00 in0.0 mm
08:19 AM 50.2°F10.1°C -167.8°F-111.0°C - Calm Calm 0.6 mph1.0 kmh 29.99 in1015.6 mb 0.00 in0.0 mm 0.00 in0.0 mm 0.00 in0.0 mm
08:34 AM 56.5°F13.6°C -167.2°F-110.7°C - Calm Calm -- 29.99 in1015.6 mb 0.00 in0.0 mm 0.00 in0.0 mm 0.00 in0.0 mm
08:49 AM 56.7°F13.7°C -167.1°F-110.6°C - Calm Calm -- 29.98 in1015.2 mb 0.00 in0.0 mm 0.00 in0.0 mm 0.00 in0.0 mm
09:04 AM 53.6°F12.0°C -167.4°F-110.8°C - Calm Calm -- 29.97 in1014.9 mb 0.00 in0.0 mm 0.00 in0.0 mm 0.00 in0.0 mm
09:19 AM 51.6°F10.9°C -167.6°F-110.9°C - Calm Calm -- 29.97 in1014.9 mb 0.00 in0.0 mm 0.00 in0.0 mm 0.00 in0.0 mm
09:34 AM 51.3°F10.7°C -167.7°F-110.9°C - Calm Calm -- 29.97 in1014.9 mb 0.00 in0.0 mm 0.00 in0.0 mm 0.00 in0.0 mm
09:49 AM 51.8°F11.0°C -167.6°F-110.9°C - Calm Calm -- 29.96 in1014.6 mb 0.00 in0.0 mm 0.00 in0.0 mm 0.00 in0.0 mm
10:04 AM 52.7°F11.5°C -167.5°F-110.8°C - Calm Calm -- 29.96 in1014.6 mb 0.00 in0.0 mm 0.00 in0.0 mm 0.00 in0.0 mm
10:19 AM 53.1°F11.7°C -167.5°F-110.8°C - Calm Calm -- 29.96 in1014.6 mb 0.00 in0.0 mm 0.00 in0.0 mm 0.00 in0.0 mm
10:34 AM 54.0°F12.2°C -167.4°F-110.8°C - Calm Calm -- 29.95 in1014.2 mb 0.00 in0.0 mm 0.00 in0.0 mm 0.00 in0.0 mm
10:49 AM 55.0°F12.8°C -167.3°F-110.7°C - Calm Calm -- 29.95 in1014.2 mb 0.00 in0.0 mm 0.00 in0.0 mm 0.00 in0.0 mm
11:04 AM 53.4°F11.9°C -167.5°F-110.8°C - Calm Calm -- 29.94 in1013.9 mb 0.00 in0.0 mm 0.00 in0.0 mm 0.00 in0.0 mm
11:19 AM 55.6°F13.1°C -167.2°F-110.7°C - Calm Calm -- 29.94 in1013.9 mb 0.00 in0.0 mm 0.00 in0.0 mm 0.00 in0.0 mm
11:34 AM 56.8°F13.8°C -167.1°F-110.6°C - Calm Calm -- 29.93 in1013.5 mb 0.00 in0.0 mm 0.00 in0.0 mm 0.00 in0.0 mm
11:49 AM 58.8°F14.9°C -166.9°F-110.5°C - Calm Calm -- 29.92 in1013.2 mb 0.00 in0.0 mm 0.00 in0.0 mm 0.00 in0.0 mm
12:04 PM 59.7°F15.4°C -166.8°F-110.4°C - Calm Calm -- 29.92 in1013.2 mb 0.00 in0.0 mm 0.00 in0.0 mm 0.00 in0.0 mm
12:19 PM 59.5°F15.3°C -166.8°F-110.4°C - Calm Calm -- 29.91 in1012.9 mb 0.00 in0.0 mm 0.00 in0.0 mm 0.00 in0.0 mm
12:34 PM 59.5°F15.3°C -166.8°F-110.4°C - Calm Calm -- 29.91 in1012.9 mb 0.00 in0.0 mm 0.00 in0.0 mm 0.00 in0.0 mm
12:49 PM 59.7°F15.4°C -166.8°F-110.4°C - Calm Calm -- 29.91 in1012.9 mb 0.00 in0.0 mm 0.00 in0.0 mm 0.00 in0.0 mm
01:04 PM 60.1°F15.6°C -166.8°F-110.4°C - Calm Calm 0.6 mph1.0 kmh 29.90 in1012.5 mb 0.00 in0.0 mm 0.00 in0.0 mm 0.00 in0.0 mm
01:19 PM 60.6°F15.9°C -166.7°F-110.4°C - Calm Calm -- 29.89 in1012.2 mb 0.00 in0.0 mm 0.00 in0.0 mm 0.00 in0.0 mm
01:34 PM 59.9°F15.5°C -166.8°F-110.4°C - Calm Calm -- 29.88 in1011.9 mb 0.00 in0.0 mm 0.00 in0.0 mm 0.00 in0.0 mm
01:49 PM 60.3°F15.7°C -166.8°F-110.4°C - Calm Calm -- 29.87 in1011.5 mb 0.00 in0.0 mm 0.00 in0.0 mm 0.00 in0.0 mm
02:04 PM 60.3°F15.7°C -166.8°F-110.4°C - Calm Calm -- 29.87 in1011.5 mb 0.00 in0.0 mm 0.00 in0.0 mm 0.00 in0.0 mm
02:19 PM 60.4°F15.8°C -166.8°F-110.4°C - Calm Calm -- 29.86 in1011.2 mb 0.00 in0.0 mm 0.00 in0.0 mm 0.00 in0.0 mm
02:34 PM 60.4°F15.8°C -166.8°F-110.4°C - Calm Calm -- 29.86 in1011.2 mb 0.00 in0.0 mm 0.00 in0.0 mm 0.00 in0.0 mm
02:49 PM 60.6°F15.9°C -166.7°F-110.4°C - Calm Calm -- 29.86 in1011.2 mb 0.00 in0.0 mm 0.00 in0.0 mm 0.00 in0.0 mm
03:04 PM 61.0°F16.1°C -166.7°F-110.4°C - Calm Calm -- 29.85 in1010.8 mb 0.00 in0.0 mm 0.00 in0.0 mm 0.00 in0.0 mm
03:19 PM 61.2°F16.2°C -166.7°F-110.4°C - Calm Calm -- 29.84 in1010.5 mb 0.00 in0.0 mm 0.00 in0.0 mm 0.00 in0.0 mm
03:34 PM 60.8°F16.0°C -166.7°F-110.4°C - Calm Calm -- 29.83 in1010.2 mb 0.00 in0.0 mm 0.00 in0.0 mm 0.00 in0.0 mm
03:49 PM 60.8°F16.0°C -166.7°F-110.4°C - Calm Calm -- 29.82 in1009.8 mb 0.01 in0.3 mm 0.05 in1.3 mm 0.01 in0.3 mm
04:04 PM 60.3°F15.7°C -166.8°F-110.4°C - Calm Calm -- 29.81 in1009.5 mb 0.01 in0.3 mm 0.00 in0.0 mm 0.01 in0.3 mm
04:19 PM 60.1°F15.6°C -166.8°F-110.4°C - Calm Calm -- 29.81 in1009.5 mb 0.00 in0.0 mm 0.00 in0.0 mm 0.01 in0.3 mm
04:34 PM 59.7°F15.4°C -166.8°F-110.4°C - Calm Calm -- 29.81 in1009.5 mb 0.00 in0.0 mm 0.00 in0.0 mm 0.01 in0.3 mm
04:49 PM 59.9°F15.5°C -166.8°F-110.4°C - Calm Calm -- 29.81 in1009.5 mb 0.00 in0.0 mm 0.00 in0.0 mm 0.01 in0.3 mm
05:04 PM 59.4°F15.2°C -166.9°F-110.5°C - Calm Calm -- 29.81 in1009.5 mb 0.00 in0.0 mm 0.00 in0.0 mm 0.01 in0.3 mm
05:19 PM 59.0°F15.0°C -166.9°F-110.5°C - Calm Calm -- 29.80 in1009.1 mb 0.00 in0.0 mm 0.00 in0.0 mm 0.01 in0.3 mm
05:34 PM 57.9°F14.4°C -167.0°F-110.6°C - Calm Calm -- 29.79 in1008.8 mb 0.00 in0.0 mm 0.00 in0.0 mm 0.01 in0.3 mm
05:49 PM 57.0°F13.9°C -167.1°F-110.6°C - Calm Calm -- 29.79 in1008.8 mb 0.00 in0.0 mm 0.00 in0.0 mm 0.01 in0.3 mm
06:04 PM 56.5°F13.6°C -167.2°F-110.7°C - Calm Calm -- 29.79 in1008.8 mb 0.00 in0.0 mm 0.00 in0.0 mm 0.01 in0.3 mm
06:19 PM 55.8°F13.2°C -167.2°F-110.7°C - Calm Calm -- 29.79 in1008.8 mb 0.00 in0.0 mm 0.00 in0.0 mm 0.01 in0.3 mm
06:34 PM 55.2°F12.9°C -167.3°F-110.7°C - Calm Calm -- 29.79 in1008.8 mb 0.00 in0.0 mm 0.00 in0.0 mm 0.01 in0.3 mm
06:49 PM 54.9°F12.7°C -167.3°F-110.7°C - Calm Calm -- 29.79 in1008.8 mb 0.00 in0.0 mm 0.00 in0.0 mm 0.01 in0.3 mm
07:04 PM 54.3°F12.4°C -167.4°F-110.8°C - Calm Calm -- 29.78 in1008.5 mb 0.00 in0.0 mm 0.00 in0.0 mm 0.01 in0.3 mm
07:19 PM 54.3°F12.4°C -167.4°F-110.8°C - Calm Calm -- 29.79 in1008.8 mb 0.00 in0.0 mm 0.00 in0.0 mm 0.01 in0.3 mm
07:34 PM 54.0°F12.2°C -167.4°F-110.8°C - Calm Calm -- 29.78 in1008.5 mb 0.00 in0.0 mm 0.00 in0.0 mm 0.01 in0.3 mm
07:49 PM 53.8°F12.1°C -167.4°F-110.8°C - Calm Calm -- 29.78 in1008.5 mb 0.00 in0.0 mm 0.00 in0.0 mm 0.01 in0.3 mm
08:04 PM 54.1°F12.3°C -167.4°F-110.8°C - Calm Calm -- 29.78 in1008.5 mb 0.00 in0.0 mm 0.00 in0.0 mm 0.01 in0.3 mm
08:19 PM 54.5°F12.5°C -167.4°F-110.8°C - Calm Calm -- 29.78 in1008.5 mb 0.00 in0.0 mm 0.00 in0.0 mm 0.01 in0.3 mm
08:34 PM 54.1°F12.3°C -167.4°F-110.8°C - Calm Calm -- 29.78 in1008.5 mb 0.00 in0.0 mm 0.00 in0.0 mm 0.01 in0.3 mm
08:49 PM 54.1°F12.3°C -167.4°F-110.8°C - Calm Calm -- 29.77 in1008.1 mb 0.00 in0.0 mm 0.00 in0.0 mm 0.01 in0.3 mm
09:04 PM 54.0°F12.2°C -167.4°F-110.8°C - Calm Calm -- 29.77 in1008.1 mb 0.00 in0.0 mm 0.00 in0.0 mm 0.01 in0.3 mm
09:19 PM 54.0°F12.2°C -167.4°F-110.8°C - Calm Calm -- 29.77 in1008.1 mb 0.00 in0.0 mm 0.00 in0.0 mm 0.01 in0.3 mm
09:34 PM 54.0°F12.2°C -167.4°F-110.8°C - Calm Calm -- 29.77 in1008.1 mb 0.00 in0.0 mm 0.00 in0.0 mm 0.01 in0.3 mm
09:49 PM 53.8°F12.1°C -167.4°F-110.8°C - Calm Calm -- 29.76 in1007.8 mb 0.00 in0.0 mm 0.00 in0.0 mm 0.01 in0.3 mm
10:04 PM 53.6°F12.0°C -167.4°F-110.8°C - Calm Calm -- 29.76 in1007.8 mb 0.00 in0.0 mm 0.00 in0.0 mm 0.01 in0.3 mm
10:19 PM 54.1°F12.3°C -167.4°F-110.8°C - Calm Calm -- 29.76 in1007.8 mb 0.00 in0.0 mm 0.00 in0.0 mm 0.01 in0.3 mm
10:34 PM 54.5°F12.5°C -167.4°F-110.8°C - Calm Calm -- 29.77 in1008.1 mb 0.00 in0.0 mm 0.00 in0.0 mm 0.01 in0.3 mm
10:49 PM 54.1°F12.3°C -167.4°F-110.8°C - Calm Calm -- 29.77 in1008.1 mb 0.00 in0.0 mm 0.00 in0.0 mm 0.01 in0.3 mm
11:04 PM 54.0°F12.2°C -167.4°F-110.8°C - Calm Calm -- 29.77 in1008.1 mb 0.00 in0.0 mm 0.00 in0.0 mm 0.01 in0.3 mm
11:19 PM 53.2°F11.8°C -167.5°F-110.8°C - Calm Calm -- 29.78 in1008.5 mb 0.00 in0.0 mm 0.00 in0.0 mm 0.01 in0.3 mm
11:34 PM 52.5°F11.4°C -167.5°F-110.8°C - Calm Calm -- 29.78 in1008.5 mb 0.00 in0.0 mm 0.00 in0.0 mm 0.01 in0.3 mm
11:49 PM 51.6°F10.9°C -167.6°F-110.9°C - Calm Calm -- 29.79 in1008.8 mb 0.00 in0.0 mm 0.00 in0.0 mm 0.01 in0.3 mm